Time;durP1;ratioP1;P1;durP2;ratioP2;P2;SDS_P1;SDS_P2;PMS_P1;PMS_P2;Temp;Humidity;BMP_temperature;BMP_pressure;BME280_temperature;BME280_humidity;BME280_pressure;Samples;Min_cycle;Max_cycle;Signal;HPM_P1;HPM_P2
2020/12/28 00:00:55;;;;;;;13.75;5.70;;;21.10;43.50;;;;;;4964930;28;20027;-64
2020/12/28 00:03:22;;;;;;;13.25;5.70;;;21.10;23.80;;;;;;4962775;28;20081;-63
2020/12/28 00:05:49;;;;;;;10.82;5.35;;;21.00;24.80;;;;;;4960788;28;20163;-63
2020/12/28 00:08:17;;;;;;;10.02;4.00;;;20.90;25.50;;;;;;4962007;28;20153;-64
2020/12/28 00:10:46;;;;;;;12.45;4.20;;;20.80;25.40;;;;;;4960988;28;20078;-64
2020/12/28 00:13:12;;;;;;;9.65;3.30;;;20.80;26.10;;;;;;4966143;28;20040;-63
2020/12/28 00:15:39;;;;;;;8.95;3.47;;;20.60;25.70;;;;;;4959168;28;20024;-64
2020/12/28 00:18:05;;;;;;;10.80;3.40;;;20.60;28.40;;;;;;4962077;28;20060;-64
2020/12/28 00:20:32;;;;;;;10.45;3.78;;;20.60;26.30;;;;;;4966349;28;20040;-63
2020/12/28 00:22:59;;;;;;;6.28;2.70;;;20.40;32.80;;;;;;4962986;28;20023;-63
2020/12/28 00:25:27;;;;;;;15.80;3.85;;;20.30;25.70;;;;;;4962820;28;20023;-64
2020/12/28 00:27:57;;;;;;;12.45;5.13;;;20.20;50.40;;;;;;4960116;28;20125;-63
2020/12/28 00:30:24;;;;;;;15.07;5.97;;;20.30;29.00;;;;;;4963274;28;20037;-64
2020/12/28 00:32:50;;;;;;;19.58;6.15;;;20.10;26.30;;;;;;4963294;28;20445;-63
2020/12/28 00:35:17;;;;;;;22.58;7.03;;;20.00;45.80;;;;;;4963170;28;20537;-62
2020/12/28 00:37:43;;;;;;;18.77;6.95;;;19.90;47.10;;;;;;4963125;28;20050;-63
2020/12/28 00:40:10;;;;;;;17.08;6.72;;;19.80;30.90;;;;;;4959313;28;20046;-64
2020/12/28 00:42:37;;;;;;;15.07;7.28;;;19.70;28.10;;;;;;4960326;28;20027;-63
2020/12/28 00:45:10;;;;;;;18.55;6.68;;;19.70;37.60;;;;;;4961106;28;20045;-65
2020/12/28 00:47:37;;;;;;;18.90;6.82;;;19.30;48.70;;;;;;4964193;28;20035;-64
2020/12/28 00:50:05;;;;;;;23.38;7.57;;;19.50;27.90;;;;;;4960059;28;20131;-64
2020/12/28 00:52:32;;;;;;;38.60;7.53;;;19.40;28.10;;;;;;4962768;28;20052;-64
2020/12/28 00:54:58;;;;;;;;;;;19.30;29.00;;;;;;4955377;28;20039;-63
2020/12/28 00:57:24;;;;;;;18.85;7.22;;;19.20;28.80;;;;;;4958907;28;19941;-64
2020/12/28 00:59:51;;;;;;;;;;;19.20;29.00;;;;;;4960540;28;20048;-66
2020/12/28 01:02:17;;;;;;;25.40;7.05;;;19.00;38.40;;;;;;4960738;28;19932;-63
2020/12/28 01:04:43;;;;;;;;;;;19.00;29.00;;;;;;4955620;28;20034;-65
2020/12/28 01:07:10;;;;;;;21.42;8.20;;;19.00;29.20;;;;;;4962491;28;19918;-64
2020/12/28 01:09:36;;;;;;;;;;;18.80;29.60;;;;;;4962218;28;20454;-64
2020/12/28 01:12:02;;;;;;;29.48;10.88;;;18.80;34.60;;;;;;4963594;28;20029;-64
2020/12/28 01:14:29;;;;;;;30.17;10.80;;;18.80;30.10;;;;;;4962335;28;20038;-64
2020/12/28 01:16:55;;;;;;;;;;;18.70;30.60;;;;;;4969687;28;20056;-65
2020/12/28 01:19:21;;;;;;;31.45;12.77;;;18.70;43.90;;;;;;4961175;28;19910;-65
2020/12/28 01:21:48;;;;;;;;;;;;;;;;;;4964581;28;20028;-64
2020/12/28 01:24:14;;;;;;;36.40;14.93;;;18.60;31.00;;;;;;4962744;28;19910;-63
2020/12/28 01:26:42;;;;;;;;;;;18.60;31.60;;;;;;4963334;28;20069;-64
2020/12/28 01:29:10;;;;;;;38.78;15.52;;;18.40;46.40;;;;;;4961436;28;19910;-63
2020/12/28 01:31:37;;;;;;;40.03;15.15;;;18.40;46.60;;;;;;4972468;28;20054;-64
2020/12/28 01:34:03;;;;;;;39.78;16.40;;;18.40;33.10;;;;;;4961445;28;20175;-65
2020/12/28 01:36:30;;;;;;;;;;;18.30;32.50;;;;;;4963351;28;20499;-67
2020/12/28 01:38:56;;;;;;;35.97;13.68;;;18.30;32.90;;;;;;4963974;28;19938;-65
2020/12/28 01:41:22;;;;;;;;;;;18.20;32.80;;;;;;4960308;28;21637;-64
2020/12/28 01:43:49;;;;;;;54.03;16.02;;;18.20;32.40;;;;;;4960494;28;19934;-63
2020/12/28 01:46:15;;;;;;;;;;;18.20;32.60;;;;;;4963304;28;20069;-64
2020/12/28 01:48:42;;;;;;;44.10;15.25;;;18.10;32.60;;;;;;4964458;28;20406;-65
2020/12/28 01:51:09;;;;;;;39.78;15.80;;;18.10;33.00;;;;;;4958973;28;20063;-64
2020/12/28 01:53:36;;;;;;;40.33;17.65;;;17.70;63.90;;;;;;4960577;28;20045;-64
2020/12/28 01:56:05;;;;;;;41.97;17.05;;;18.00;32.50;;;;;;4961428;28;20468;-64
2020/12/28 01:58:32;;;;;;;43.13;17.02;;;18.00;33.20;;;;;;4960524;28;20106;-63
2020/12/28 02:00:59;;;;;;;40.83;17.45;;;17.90;33.20;;;;;;4965984;28;20397;-64
2020/12/28 02:03:26;;;;;;;41.45;19.90;;;17.90;33.30;;;;;;4960184;28;20062;-64
2020/12/28 02:05:53;;;;;;;46.55;21.38;;;17.80;33.50;;;;;;4967277;28;20046;-63
2020/12/28 02:08:20;;;;;;;;;;;17.70;34.10;;;;;;4961144;28;20024;-63
2020/12/28 02:10:47;;;;;;;46.70;19.98;;;17.60;35.70;;;;;;4958400;28;19957;-64
2020/12/28 02:13:14;;;;;;;44.90;19.67;;;17.60;35.50;;;;;;4960539;28;20077;-63
2020/12/28 02:15:41;;;;;;;;;;;;;;;;;;4964144;28;20110;-64
2020/12/28 02:18:07;;;;;;;;;;;17.20;52.40;;;;;;4959269;28;19910;-63
2020/12/28 02:20:34;;;;;;;39.30;18.80;;;16.90;39.60;;;;;;4963516;28;19910;-64
2020/12/28 02:23:00;;;;;;;;;;;;;;;;;;4960334;28;20035;-65
2020/12/28 02:25:27;;;;;;;41.20;19.40;;;16.80;38.00;;;;;;4962624;28;20000;-63
2020/12/28 02:27:53;;;;;;;;;;;;;;;;;;4963386;28;20079;-64
2020/12/28 02:30:20;;;;;;;52.63;19.63;;;16.70;35.80;;;;;;4961137;28;19917;-65
2020/12/28 02:32:46;;;;;;;42.88;20.17;;;17.00;39.60;;;;;;4968382;28;20045;-65
2020/12/28 02:35:13;;;;;;;48.22;19.85;;;16.60;36.90;;;;;;4961965;28;20132;-64
2020/12/28 02:37:39;;;;;;;50.67;20.65;;;16.20;37.80;;;;;;4961495;28;20553;-64
2020/12/28 02:40:05;;;;;;;;;;;16.50;36.80;;;;;;4957123;28;20078;-64
2020/12/28 02:42:32;;;;;;;52.35;19.27;;;16.40;37.10;;;;;;4959945;28;19975;-65
2020/12/28 02:44:58;;;;;;;;;;;;;;;;;;4960079;28;20480;-64
2020/12/28 02:47:24;;;;;;;60.33;17.75;;;16.20;45.30;;;;;;4958444;28;20275;-65
2020/12/28 02:49:51;;;;;;;;;;;;;;;;;;4959399;28;20023;-64
2020/12/28 02:52:17;;;;;;;57.50;21.02;;;16.10;38.20;;;;;;4962793;28;19910;-63
2020/12/28 02:54:43;;;;;;;;;;;16.20;38.70;;;;;;4966409;28;20068;-62
2020/12/28 02:57:10;;;;;;;73.25;28.02;;;16.00;39.10;;;;;;4965339;28;20402;-64
2020/12/28 02:59:36;;;;;;;98.47;33.67;;;16.00;39.00;;;;;;4961091;28;20128;-64
2020/12/28 03:02:02;;;;;;;;;;;15.90;38.90;;;;;;4967004;28;20129;-65
2020/12/28 03:04:29;;;;;;;96.28;37.10;;;15.70;39.20;;;;;;4962151;28;19996;-65
2020/12/28 03:06:55;;;;;;;;;;;15.80;39.40;;;;;;4966902;28;20240;-65
2020/12/28 03:09:21;;;;;;;90.90;35.28;;;15.70;39.60;;;;;;4974748;28;19948;-64
2020/12/28 03:11:47;;;;;;;;;;;15.60;39.50;;;;;;4966145;28;20079;-65
2020/12/28 03:14:14;;;;;;;69.80;26.48;;;15.60;39.30;;;;;;4965842;28;19943;-64
2020/12/28 03:16:40;;;;;;;;;;;15.60;49.30;;;;;;4963812;28;20136;-63
2020/12/28 03:19:07;;;;;;;67.63;25.70;;;15.50;39.40;;;;;;4975254;28;19954;-64
2020/12/28 03:21:33;;;;;;;83.57;25.77;;;15.40;39.50;;;;;;4969639;28;20168;-65
2020/12/28 03:24:00;;;;;;;74.78;25.05;;;15.40;40.00;;;;;;4966491;28;20087;-64
2020/12/28 03:26:26;;;;;;;;;;;15.40;40.10;;;;;;4964952;28;20068;-66
2020/12/28 03:28:52;;;;;;;76.70;30.23;;;15.30;40.20;;;;;;4963348;28;19947;-63
2020/12/28 03:31:19;;;;;;;;;;;15.30;40.30;;;;;;4973939;28;20128;-67
2020/12/28 03:33:45;;;;;;;91.13;35.92;;;15.20;40.60;;;;;;4974299;28;19958;-62
2020/12/28 03:36:11;;;;;;;78.38;30.13;;;15.10;40.60;;;;;;4976048;28;20522;-63
2020/12/28 03:38:38;;;;;;;;;;;15.10;41.10;;;;;;4973672;28;20076;-65
2020/12/28 03:41:04;;;;;;;68.40;27.70;;;15.00;41.70;;;;;;4966699;28;20409;-64
2020/12/28 03:43:30;;;;;;;;;;;15.00;42.40;;;;;;4962982;28;20130;-64
2020/12/28 03:45:57;;;;;;;67.03;25.95;;;15.00;42.80;;;;;;4960482;28;20360;-65
2020/12/28 03:48:23;;;;;;;70.43;26.48;;;14.90;42.60;;;;;;4962521;28;20070;-64
2020/12/28 03:50:50;;;;;;;65.50;24.90;;;14.80;42.40;;;;;;4964092;28;20061;-65
2020/12/28 03:53:16;;;;;;;70.22;24.27;;;14.70;42.90;;;;;;4961120;28;20074;-65
2020/12/28 03:55:43;;;;;;;68.03;24.73;;;14.70;43.10;;;;;;4967280;28;20116;-63
2020/12/28 03:58:09;;;;;;;68.13;23.50;;;14.70;43.50;;;;;;4960142;28;20086;-66
2020/12/28 04:00:36;;;;;;;64.43;23.45;;;14.60;43.60;;;;;;4962710;28;20094;-65
2020/12/28 04:03:02;;;;;;;;;;;14.50;43.80;;;;;;4960215;28;20073;-65
2020/12/28 04:05:29;;;;;;;67.95;22.38;;;14.50;44.00;;;;;;4966233;28;19950;-65
2020/12/28 04:07:55;;;;;;;58.97;21.45;;;14.40;44.60;;;;;;4959933;28;20087;-65
2020/12/28 04:10:21;;;;;;;;;;;14.40;44.60;;;;;;4960138;28;20113;-63
2020/12/28 04:12:48;;;;;;;59.47;22.90;;;14.20;44.50;;;;;;4962371;28;19950;-64
2020/12/28 04:15:14;;;;;;;66.50;23.77;;;14.20;44.60;;;;;;4961043;28;20073;-64
2020/12/28 04:17:41;;;;;;;62.28;21.48;;;14.20;44.70;;;;;;4963405;28;20112;-66
2020/12/28 04:20:07;;;;;;;;;;;14.20;44.90;;;;;;4963031;28;20071;-63
2020/12/28 04:22:33;;;;;;;63.50;20.88;;;14.20;51.40;;;;;;4961461;28;19950;-64
2020/12/28 04:25:00;;;;;;;57.08;19.13;;;14.20;45.80;;;;;;4960942;28;20064;-63
2020/12/28 04:27:26;;;;;;;54.70;18.98;;;14.10;45.80;;;;;;4962377;28;20182;-64
2020/12/28 04:29:53;;;;;;;60.67;17.88;;;14.10;45.80;;;;;;4965890;28;20068;-64
2020/12/28 04:32:20;;;;;;;60.60;18.02;;;14.10;45.90;;;;;;4973582;28;20095;-65
2020/12/28 04:34:47;;;;;;;56.83;16.63;;;14.10;45.90;;;;;;4966138;28;20082;-64
2020/12/28 04:37:17;;;;;;;47.60;14.90;;;14.00;45.50;;;;;;4960377;28;20055;-64
2020/12/28 04:39:43;;;;;;;42.88;14.85;;;14.00;65.80;;;;;;4960797;28;20031;-64
2020/12/28 04:42:10;;;;;;;58.15;15.23;;;14.00;46.60;;;;;;4964087;28;20074;-64
2020/12/28 04:44:36;;;;;;;;;;;13.80;46.50;;;;;;4961835;28;20102;-64
2020/12/28 04:47:03;;;;;;;50.55;15.38;;;13.80;46.70;;;;;;4964327;28;20010;-65
2020/12/28 04:49:29;;;;;;;;;;;13.70;47.10;;;;;;4962601;28;20125;-65
2020/12/28 04:51:57;;;;;;;37.80;15.33;;;13.70;47.10;;;;;;4960580;28;19952;-63
2020/12/28 04:54:23;;;;;;;42.83;15.93;;;13.60;47.60;;;;;;4963764;28;20127;-65
2020/12/28 04:56:49;;;;;;;;;;;13.50;47.90;;;;;;4962344;28;20065;-64
2020/12/28 04:59:16;;;;;;;47.92;15.63;;;13.40;48.00;;;;;;4961633;28;20430;-65
2020/12/28 05:01:53;;;;;;;47.55;16.10;;;13.40;48.10;;;;;;4963149;28;20077;-64
2020/12/28 05:04:22;;;;;;;61.00;16.10;;;13.30;48.00;;;;;;4962028;28;20069;-63
2020/12/28 05:07:05;;;;;;;46.38;15.32;;;13.40;48.40;;;;;;4965378;28;20592;-63
2020/12/28 05:09:32;;;;;;;40.88;15.65;;;13.40;48.40;;;;;;4962273;28;20076;-65
2020/12/28 05:12:03;;;;;;;46.63;16.88;;;13.40;48.70;;;;;;4960719;28;20083;-63
2020/12/28 05:14:31;;;;;;;55.42;17.45;;;13.30;48.60;;;;;;4961493;28;20532;-64
2020/12/28 05:17:05;;;;;;;50.05;17.35;;;13.30;48.90;;;;;;4961342;28;20068;-63
2020/12/28 05:19:37;;;;;;;39.47;16.43;;;13.30;49.00;;;;;;4963761;28;20070;-65
2020/12/28 05:22:04;;;;;;;60.92;16.98;;;13.20;49.20;;;;;;4961473;28;20091;-64
2020/12/28 05:24:32;;;;;;;57.38;17.95;;;13.20;49.10;;;;;;4959555;28;20069;-63
2020/12/28 05:26:59;;;;;;;48.40;18.05;;;13.20;49.60;;;;;;4959310;28;20093;-63
2020/12/28 05:29:27;;;;;;;49.45;18.50;;;13.20;49.40;;;;;;4963645;28;20073;-65
2020/12/28 05:31:58;;;;;;;56.50;18.33;;;13.10;49.30;;;;;;4960052;28;20121;-65
2020/12/28 05:34:26;;;;;;;54.83;18.77;;;13.00;49.10;;;;;;4961554;28;20062;-64
2020/12/28 05:36:56;;;;;;;53.13;18.63;;;13.00;49.50;;;;;;4965214;28;20516;-63
2020/12/28 05:39:25;;;;;;;46.45;18.15;;;13.10;50.00;;;;;;4962035;28;20087;-64
2020/12/28 05:41:55;;;;;;;56.55;18.80;;;13.00;49.80;;;;;;4958437;28;20085;-64
2020/12/28 05:44:31;;;;;;;56.08;18.00;;;13.00;49.90;;;;;;4962358;28;20111;-65
2020/12/28 05:47:06;;;;;;;59.47;18.55;;;12.90;49.80;;;;;;4961009;28;20142;-63
2020/12/28 05:49:35;;;;;;;57.75;17.33;;;12.80;49.60;;;;;;4962223;28;20073;-64
2020/12/28 05:52:03;;;;;;;60.47;19.77;;;12.80;49.80;;;;;;4960952;28;20073;-66
2020/12/28 05:54:30;;;;;;;81.63;22.13;;;12.70;50.10;;;;;;4960332;28;20066;-66
2020/12/28 05:56:57;;;;;;;74.07;23.63;;;12.70;50.20;;;;;;4957133;28;20080;-65
2020/12/28 05:59:24;;;;;;;88.28;28.35;;;12.80;50.00;;;;;;4962423;28;20058;-64
2020/12/28 06:01:51;;;;;;;110.25;33.67;;;12.80;49.60;;;;;;4960359;28;20148;-64
2020/12/28 06:04:19;;;;;;;111.65;36.58;;;12.80;49.30;;;;;;4958482;28;20056;-63
2020/12/28 06:06:47;;;;;;;111.63;36.67;;;12.70;48.90;;;;;;4965919;28;20094;-64
2020/12/28 06:09:18;;;;;;;121.60;40.10;;;12.80;49.10;;;;;;4959639;28;20497;-66
2020/12/28 06:11:46;;;;;;;124.93;41.17;;;12.80;49.10;;;;;;4962663;28;20080;-64
2020/12/28 06:14:16;;;;;;;143.25;40.65;;;12.70;49.30;;;;;;4960653;28;20535;-64
2020/12/28 06:16:44;;;;;;;141.30;40.72;;;12.80;49.70;;;;;;4962915;28;20148;-64
2020/12/28 06:19:41;;;;;;;130.10;38.72;;;12.80;49.70;;;;;;4961226;28;20113;-64
2020/12/28 06:22:24;;;;;;;114.95;38.83;;;12.80;49.50;;;;;;4973440;28;20081;-64
2020/12/28 06:24:58;;;;;;;109.43;36.15;;;12.70;49.50;;;;;;4958362;28;20075;-64
2020/12/28 06:27:38;;;;;;;108.07;35.88;;;12.70;49.70;;;;;;4968901;28;20093;-66
2020/12/28 06:30:09;;;;;;;113.30;35.42;;;12.50;49.30;;;;;;4963850;28;20057;-65
2020/12/28 06:32:36;;;;;;;120.65;40.25;;;12.60;49.90;;;;;;4965429;28;20056;-63
2020/12/28 06:35:06;;;;;;;122.80;38.28;;;12.60;50.40;;;;;;4966909;28;20521;-64
2020/12/28 06:37:41;;;;;;;121.93;37.47;;;12.60;50.40;;;;;;4961964;28;20068;-64
2020/12/28 06:40:11;;;;;;;121.32;36.58;;;12.80;91.90;;;;;;4966516;28;20071;-65
2020/12/28 06:42:38;;;;;;;108.30;37.05;;;12.50;50.40;;;;;;4963846;28;20071;-67
2020/12/28 06:45:16;;;;;;;116.20;34.83;;;12.50;50.60;;;;;;4962479;28;20065;-66
2020/12/28 06:47:44;;;;;;;106.90;37.20;;;12.50;51.00;;;;;;4964139;28;20571;-64
2020/12/28 06:50:11;;;;;;;99.93;37.03;;;12.50;50.70;;;;;;4965273;28;20070;-65
2020/12/28 06:52:38;;;;;;;123.50;37.90;;;12.50;50.40;;;;;;4963038;28;20430;-64
2020/12/28 06:55:11;;;;;;;111.32;36.13;;;12.40;50.90;;;;;;4962925;28;20133;-66
2020/12/28 06:57:38;;;;;;;118.72;37.88;;;12.50;56.80;;;;;;4970000;28;20493;-65
2020/12/28 07:00:18;;;;;;;119.72;38.55;;;12.30;50.70;;;;;;4963155;28;20106;-65
2020/12/28 07:02:54;;;;;;;114.93;34.90;;;12.20;50.50;;;;;;4967941;28;20163;-66
2020/12/28 07:05:25;;;;;;;127.47;36.13;;;12.20;50.60;;;;;;4963943;28;20537;-65
2020/12/28 07:07:52;;;;;;;113.25;36.55;;;12.20;50.90;;;;;;4961038;28;20184;-65
2020/12/28 07:10:22;;;;;;;113.65;36.40;;;12.20;51.30;;;;;;4966153;28;20101;-65
2020/12/28 07:12:50;;;;;;;117.10;33.80;;;12.10;51.50;;;;;;4961662;28;20075;-65
2020/12/28 07:15:20;;;;;;;112.55;33.83;;;12.10;51.40;;;;;;4963064;28;20065;-67
2020/12/28 07:17:47;;;;;;;99.93;34.30;;;12.00;51.20;;;;;;4966290;28;20532;-64
2020/12/28 07:20:14;;;;;;;93.65;31.55;;;12.00;51.60;;;;;;4970889;28;20073;-65
2020/12/28 07:22:43;;;;;;;85.25;29.20;;;12.00;52.60;;;;;;4971866;28;20133;-66
2020/12/28 07:25:12;;;;;;;82.65;28.55;;;12.00;52.80;;;;;;4968642;28;21636;-64
2020/12/28 07:27:40;;;;;;;83.55;27.88;;;12.00;53.20;;;;;;4964903;28;20100;-65
2020/12/28 07:30:09;;;;;;;73.55;26.52;;;12.00;53.50;;;;;;4960771;28;20181;-65
2020/12/28 07:32:37;;;;;;;75.53;26.52;;;12.00;53.40;;;;;;4968788;28;20160;-65
2020/12/28 07:35:04;;;;;;;67.72;25.67;;;12.00;53.40;;;;;;4945324;28;20066;-65
2020/12/28 07:37:32;;;;;;;68.88;23.77;;;12.00;53.70;;;;;;4966483;28;20215;-64
2020/12/28 07:39:59;;;;;;;71.47;24.05;;;12.00;54.20;;;;;;4961577;28;20148;-64
2020/12/28 07:42:27;;;;;;;63.53;22.83;;;11.90;54.50;;;;;;4964123;28;20071;-65
2020/12/28 07:45:07;;;;;;;67.43;22.27;;;11.90;54.50;;;;;;4960928;28;20512;-65
2020/12/28 07:47:43;;;;;;;63.17;23.48;;;11.90;54.50;;;;;;4961370;28;20096;-64
2020/12/28 07:50:10;;;;;;;66.43;22.63;;;11.90;54.50;;;;;;4962204;28;20528;-65
2020/12/28 07:52:48;;;;;;;62.40;21.95;;;11.90;54.60;;;;;;4965045;28;20070;-65
2020/12/28 07:55:21;;;;;;;65.75;23.17;;;11.90;54.70;;;;;;4960769;28;20202;-65
2020/12/28 07:58:12;;;;;;;61.67;22.42;;;11.90;54.80;;;;;;4967596;28;20071;-65
2020/12/28 08:00:49;;;;;;;66.35;22.10;;;11.80;54.50;;;;;;4968064;28;20450;-64
2020/12/28 08:03:25;;;;;;;54.55;22.52;;;11.80;54.70;;;;;;4965847;28;20103;-64
2020/12/28 08:05:54;;;;;;;70.72;22.35;;;11.80;55.10;;;;;;4963337;28;20071;-66
2020/12/28 08:08:24;;;;;;;71.13;22.67;;;11.80;55.20;;;;;;4966202;28;20084;-63
2020/12/28 08:10:59;;;;;;;64.20;21.10;;;11.80;55.30;;;;;;4961366;28;20123;-63
2020/12/28 08:13:34;;;;;;;68.22;22.92;;;11.80;55.80;;;;;;4965240;28;20077;-63
2020/12/28 08:16:14;;;;;;;66.07;22.33;;;11.80;56.10;;;;;;4964362;28;20069;-64
2020/12/28 08:18:53;;;;;;;54.67;21.30;;;11.70;56.50;;;;;;4961580;28;20109;-65
2020/12/28 08:21:22;;;;;;;57.90;20.58;;;11.70;56.50;;;;;;4962378;28;20526;-65
2020/12/28 08:23:54;;;;;;;69.15;22.15;;;11.70;56.60;;;;;;4963253;28;20508;-64
2020/12/28 08:26:26;;;;;;;60.03;21.02;;;11.70;56.90;;;;;;4961366;28;20172;-64
2020/12/28 08:28:58;;;;;;;61.20;20.08;;;11.70;57.30;;;;;;4963114;28;20077;-65
2020/12/28 08:31:34;;;;;;;63.40;22.00;;;11.60;56.60;;;;;;4961049;28;20096;-65
2020/12/28 08:34:03;;;;;;;52.45;20.20;;;11.60;56.60;;;;;;4962696;28;20072;-62
2020/12/28 08:36:30;;;;;;;49.40;20.27;;;11.60;56.50;;;;;;4963928;28;20608;-64
2020/12/28 08:38:57;;;;;;;50.47;20.38;;;11.60;56.90;;;;;;4962677;28;20080;-64
2020/12/28 08:41:24;;;;;;;55.15;20.30;;;11.50;56.70;;;;;;4959120;28;20095;-65
2020/12/28 08:43:51;;;;;;;51.22;20.73;;;11.50;56.90;;;;;;4964297;28;20449;-64
2020/12/28 08:46:22;;;;;;;;;;;11.50;57.10;;;;;;4961002;28;20117;-65
2020/12/28 08:48:49;;;;;;;51.40;20.15;;;11.50;57.10;;;;;;4964688;28;19953;-65
2020/12/28 08:51:17;;;;;;;47.00;20.08;;;11.50;57.10;;;;;;4960405;28;20069;-66
2020/12/28 08:53:49;;;;;;;50.38;19.52;;;11.50;57.20;;;;;;4963472;28;20113;-66
2020/12/28 08:56:19;;;;;;;54.22;18.77;;;11.50;57.50;;;;;;4958494;28;20069;-64
2020/12/28 08:58:46;;;;;;;50.03;20.20;;;11.40;57.50;;;;;;4960470;28;20068;-64
2020/12/28 09:01:13;;;;;;;56.75;17.83;;;11.40;58.20;;;;;;4959467;28;20563;-65
2020/12/28 09:03:39;;;;;;;34.58;15.00;;;11.30;58.30;;;;;;4962942;28;20115;-64
2020/12/28 09:06:07;;;;;;;;;;;11.30;59.00;;;;;;4963747;28;20145;-64
2020/12/28 09:08:33;;;;;;;46.40;16.63;;;11.30;59.00;;;;;;4965984;28;19998;-67
2020/12/28 09:10:59;;;;;;;;;;;11.30;59.30;;;;;;4962303;28;20117;-65
2020/12/28 09:13:26;;;;;;;41.30;13.52;;;11.30;59.50;;;;;;4962173;28;19957;-65
2020/12/28 09:15:52;;;;;;;;;;;11.30;59.60;;;;;;4964715;28;20122;-64
2020/12/28 09:18:18;;;;;;;34.70;13.27;;;11.30;59.60;;;;;;4962633;28;19954;-63
2020/12/28 09:20:45;;;;;;;;;;;11.30;59.80;;;;;;4959589;28;20511;-65
2020/12/28 09:23:11;;;;;;;37.75;12.07;;;11.30;59.90;;;;;;4961968;28;19951;-65
2020/12/28 09:25:38;;;;;;;29.95;11.15;;;11.30;60.00;;;;;;4960974;28;20071;-64
2020/12/28 09:28:04;;;;;;;;;;;11.30;60.00;;;;;;4963714;28;20098;-63
2020/12/28 09:30:30;;;;;;;29.85;11.82;;;11.30;60.00;;;;;;4964027;28;19960;-65
2020/12/28 09:32:57;;;;;;;35.35;10.38;;;11.10;60.40;;;;;;4957706;28;20177;-64
2020/12/28 09:35:24;;;;;;;29.40;9.15;;;11.10;61.10;;;;;;4965762;28;20094;-64
2020/12/28 09:37:50;;;;;;;22.70;8.73;;;11.10;61.00;;;;;;4963524;28;20063;-63
2020/12/28 09:40:17;;;;;;;26.98;8.57;;;11.10;61.50;;;;;;4962967;28;20078;-64
2020/12/28 09:42:43;;;;;;;23.13;8.55;;;11.10;61.50;;;;;;4962902;28;20066;-64
2020/12/28 09:45:36;;;;;;;;;;;11.10;61.70;;;;;;4962047;28;20066;-65
2020/12/28 09:47:56;;;;;;;25.38;7.90;;;11.10;61.80;;;;;;4962002;28;20045;-66
2020/12/28 09:50:22;;;;;;;;;;;11.10;62.70;;;;;;4959130;28;21378;-64
2020/12/28 09:52:48;;;;;;;24.45;7.70;;;10.90;62.10;;;;;;4961284;28;19959;-64
2020/12/28 09:55:15;;;;;;;20.95;7.45;;;11.00;62.00;;;;;;4961438;28;20066;-63
2020/12/28 09:57:41;;;;;;;;;;;11.00;62.00;;;;;;4960065;28;20077;-64
2020/12/28 10:00:08;;;;;;;12.65;5.68;;;11.00;62.40;;;;;;4962597;28;19953;-65
2020/12/28 10:02:34;;;;;;;17.23;4.50;;;11.00;62.60;;;;;;4957986;28;20064;-63
2020/12/28 10:05:01;;;;;;;14.85;3.42;;;11.00;62.60;;;;;;4962923;28;20077;-64
2020/12/28 10:07:28;;;;;;;15.07;2.95;;;11.10;62.40;;;;;;4958177;28;20453;-64
2020/12/28 10:09:54;;;;;;;;;;;11.20;62.20;;;;;;4960750;28;20189;-63
2020/12/28 10:12:20;;;;;;;11.98;2.60;;;11.30;61.20;;;;;;4961291;28;20000;-63
2020/12/28 10:14:47;;;;;;;22.48;3.55;;;11.40;60.00;;;;;;4957378;28;20076;-63
2020/12/28 10:17:13;;;;;;;12.10;2.92;;;11.50;59.30;;;;;;4958590;28;20117;-64
2020/12/28 10:19:40;;;;;;;16.77;2.75;;;11.70;58.30;;;;;;4961365;28;20077;-62
2020/12/28 10:22:07;;;;;;;;;;;11.80;57.60;;;;;;4944119;28;20082;-60
2020/12/28 10:24:34;;;;;;;18.58;3.00;;;11.90;56.80;;;;;;4961137;28;20412;-64
2020/12/28 10:27:00;;;;;;;18.38;2.78;;;11.90;56.00;;;;;;4957099;28;20098;-64
2020/12/28 10:29:26;;;;;;;;;;;12.00;55.40;;;;;;4959208;28;20162;-64
2020/12/28 10:31:56;;;;;;;15.77;3.13;;;12.00;55.20;;;;;;4968351;28;20429;-64
2020/12/28 10:34:23;;;;;;;16.88;3.05;;;12.00;55.10;;;;;;4961120;28;20146;-65
2020/12/28 10:36:50;;;;;;;13.77;2.58;;;12.00;54.80;;;;;;4963806;28;20066;-64
2020/12/28 10:39:16;;;;;;;;;;;12.10;54.50;;;;;;4962218;28;20069;-63
2020/12/28 10:41:43;;;;;;;13.98;2.85;;;12.10;54.40;;;;;;4960703;28;20404;-65
2020/12/28 10:44:09;;;;;;;;;;;12.10;54.30;;;;;;4963036;28;20072;-64
2020/12/28 10:46:37;;;;;;;19.63;2.75;;;12.10;54.20;;;;;;4944348;28;19977;-65
2020/12/28 10:49:07;;;;;;;12.73;2.75;;;12.20;53.90;;;;;;4962130;28;20106;-63
2020/12/28 10:51:36;;;;;;;17.85;3.28;;;12.20;54.50;;;;;;4961489;28;20429;-63
2020/12/28 10:54:04;;;;;;;23.52;3.20;;;12.20;54.00;;;;;;4959359;28;20139;-64
2020/12/28 10:56:31;;;;;;;17.40;3.17;;;12.30;53.60;;;;;;4960548;28;20069;-64
2020/12/28 10:58:58;;;;;;;24.92;5.47;;;12.40;53.70;;;;;;4960862;28;20146;-64
2020/12/28 11:01:26;;;;;;;21.95;5.93;;;12.50;53.40;;;;;;4964581;28;20222;-64
2020/12/28 11:03:53;;;;;;;37.95;6.63;;;12.50;53.40;;;;;;4964860;28;20070;-64
2020/12/28 11:06:21;;;;;;;37.55;5.15;;;12.60;53.10;;;;;;4958963;28;20090;-64
2020/12/28 11:08:48;;;;;;;24.83;4.75;;;12.70;53.10;;;;;;4960849;28;20076;-62
2020/12/28 11:11:18;;;;;;;24.13;3.80;;;12.70;53.00;;;;;;4960182;28;20110;-65
2020/12/28 11:13:46;;;;;;;33.80;4.50;;;12.70;53.00;;;;;;4964982;28;20116;-64
2020/12/28 11:16:13;;;;;;;25.17;4.00;;;12.70;53.20;;;;;;4963106;28;20065;-64
2020/12/28 11:18:39;;;;;;;22.77;3.85;;;12.70;53.90;;;;;;4963125;28;20074;-64
2020/12/28 11:21:06;;;;;;;;;;;12.70;53.50;;;;;;4964391;28;20094;-63
2020/12/28 11:26:18;;;;;;;17.88;2.53;;;12.90;53.50;;;;;;4959852;28;20073;-62
2020/12/28 11:28:45;;;;;;;37.88;2.50;;;13.30;52.80;;;;;;4967015;28;20084;-63
2020/12/28 11:31:15;;;;;;;;;;;13.40;52.40;;;;;;4960921;28;20111;-61
2020/12/28 11:33:42;;;;;;;24.10;2.35;;;13.70;51.90;;;;;;4963351;28;20028;-64
2020/12/28 11:36:08;;;;;;;33.33;2.92;;;13.90;51.40;;;;;;4960387;28;20063;-65
2020/12/28 11:38:34;;;;;;;;;;;14.00;50.90;;;;;;4965243;28;20547;-65
2020/12/28 11:41:01;;;;;;;28.33;2.05;;;14.20;50.50;;;;;;4965040;28;20104;-64
2020/12/28 11:43:27;;;;;;;;;;;14.40;49.90;;;;;;4964664;28;20066;-66
2020/12/28 11:45:55;;;;;;;22.27;1.90;;;14.50;49.60;;;;;;4962071;28;19997;-65
2020/12/28 11:48:21;;;;;;;13.02;2.08;;;14.60;49.20;;;;;;4964772;28;20122;-66
2020/12/28 11:50:48;;;;;;;;;;;14.70;49.00;;;;;;4965582;28;20187;-64
2020/12/28 11:53:15;;;;;;;19.55;2.33;;;14.70;48.90;;;;;;4965002;28;19950;-65
2020/12/28 11:56:04;;;;;;;17.85;1.98;;;14.70;48.80;;;;;;4963096;28;20619;-65
2020/12/28 11:58:36;;;;;;;16.73;2.45;;;14.60;49.10;;;;;;4964227;28;20112;-65
2020/12/28 12:01:05;;;;;;;19.15;2.20;;;14.60;49.10;;;;;;4961822;28;20075;-65
2020/12/28 12:03:32;;;;;;;14.32;1.55;;;14.50;49.00;;;;;;4961904;28;20073;-64
2020/12/28 12:06:00;;;;;;;8.75;1.65;;;14.60;48.80;;;;;;4961930;28;20067;-64
2020/12/28 12:08:27;;;;;;;11.35;1.77;;;14.60;48.90;;;;;;4966031;28;20122;-65
2020/12/28 12:10:54;;;;;;;10.13;1.75;;;14.60;48.90;;;;;;4962008;28;20107;-65
2020/12/28 12:13:20;;;;;;;;;;;14.60;49.00;;;;;;4961225;28;20109;-64
2020/12/28 12:15:48;;;;;;;13.88;2.28;;;14.60;48.70;;;;;;4959047;28;20424;-64
2020/12/28 12:18:15;;;;;;;8.82;1.55;;;14.60;48.70;;;;;;4969875;28;20078;-64
2020/12/28 12:20:42;;;;;;;8.73;1.60;;;14.70;48.50;;;;;;4963429;28;20070;-63
2020/12/28 12:23:08;;;;;;;9.27;2.13;;;14.70;48.70;;;;;;4966105;28;20065;-65
2020/12/28 12:25:35;;;;;;;10.95;1.73;;;14.70;48.70;;;;;;4969446;28;20434;-64
2020/12/28 12:28:01;;;;;;;;;;;14.70;48.90;;;;;;4969571;28;20107;-64
2020/12/28 12:30:29;;;;;;;10.65;1.48;;;14.70;49.00;;;;;;4968285;28;20457;-64
2020/12/28 12:32:58;;;;;;;8.90;1.73;;;14.70;49.20;;;;;;4962047;28;20451;-65
2020/12/28 12:35:25;;;;;;;5.70;1.58;;;14.70;49.40;;;;;;4963982;28;20702;-64
2020/12/28 12:37:51;;;;;;;14.93;2.05;;;14.70;49.50;;;;;;4964103;28;20461;-65
2020/12/28 12:40:18;;;;;;;6.20;1.65;;;14.60;49.60;;;;;;4963580;28;20149;-64
2020/12/28 12:42:44;;;;;;;;;;;14.60;49.80;;;;;;4969174;28;20069;-65
2020/12/28 12:45:10;;;;;;;4.65;1.52;;;14.60;49.90;;;;;;4964758;28;20378;-64
2020/12/28 12:47:36;;;;;;;;;;;14.60;49.90;;;;;;4966232;28;20080;-63
2020/12/28 12:50:04;;;;;;;5.80;1.05;;;14.60;49.90;;;;;;4967315;28;20349;-62
2020/12/28 12:52:30;;;;;;;7.47;1.48;;;14.60;50.10;;;;;;4962697;28;20064;-63
2020/12/28 12:54:57;;;;;;;6.60;1.42;;;14.60;49.90;;;;;;4961419;28;20103;-64
2020/12/28 12:57:23;;;;;;;;;;;14.50;49.90;;;;;;4962745;28;20146;-64